createdAt,value
2022-12-17T00:00:16.943Z,24.2
2022-12-17T00:01:17.505Z,23.5
2022-12-17T00:02:18.122Z,23.3
2022-12-17T00:03:18.780Z,24.4
2022-12-17T00:04:19.395Z,23.5
2022-12-17T00:05:19.944Z,22.5
2022-12-17T00:06:20.539Z,24.7
2022-12-17T00:07:21.130Z,22.2
2022-12-17T00:08:21.724Z,21.8
2022-12-17T00:09:22.314Z,19.0
2022-12-17T00:10:22.912Z,22.6
2022-12-17T00:11:23.501Z,22.3
2022-12-17T00:12:24.098Z,21.8
2022-12-17T00:13:24.689Z,24.5
2022-12-17T00:14:25.287Z,24.5
2022-12-17T00:15:25.877Z,25.0
2022-12-17T00:16:26.536Z,25.2
2022-12-17T00:17:27.160Z,21.2
2022-12-17T00:18:27.755Z,25.1
2022-12-17T00:19:28.347Z,21.9
2022-12-17T00:20:28.958Z,22.0
2022-12-17T00:21:29.551Z,19.5
2022-12-17T00:22:30.145Z,21.0
2022-12-17T00:23:30.736Z,24.4
2022-12-17T00:24:31.332Z,24.7
2022-12-17T00:25:31.932Z,28.5
2022-12-17T00:26:32.521Z,27.4
2022-12-17T00:27:33.135Z,25.7
2022-12-17T00:28:33.729Z,25.2
2022-12-17T00:29:34.325Z,22.9
2022-12-17T00:30:34.916Z,18.7
2022-12-17T00:31:35.573Z,27.0
2022-12-17T00:32:36.145Z,22.1
2022-12-17T00:33:37.274Z,20.9
2022-12-17T00:34:38.112Z,25.4
2022-12-17T00:35:38.702Z,21.2
2022-12-17T00:36:39.297Z,24.4
2022-12-17T00:37:39.909Z,33.3
2022-12-17T00:38:40.503Z,27.5
2022-12-17T00:39:41.096Z,33.9
2022-12-17T00:40:41.695Z,32.0
2022-12-17T00:41:42.285Z,40.9
2022-12-17T00:42:42.879Z,37.5
2022-12-17T00:43:43.492Z,34.6
2022-12-17T00:44:44.083Z,37.6
2022-12-17T00:45:44.676Z,36.1
2022-12-17T00:46:45.350Z,36.6
2022-12-17T00:47:45.935Z,43.4
2022-12-17T00:48:46.534Z,34.4
2022-12-17T00:49:47.120Z,40.3
2022-12-17T00:50:47.716Z,37.6
2022-12-17T00:51:48.310Z,46.3
2022-12-17T00:52:48.902Z,40.8
2022-12-17T00:53:49.496Z,37.3
2022-12-17T00:54:50.091Z,37.1
2022-12-17T00:55:50.686Z,36.3
2022-12-17T00:56:51.275Z,35.6
2022-12-17T00:57:52.403Z,35.1
2022-12-17T00:58:52.997Z,35.2
2022-12-17T00:59:54.219Z,38.7
2022-12-17T01:00:55.824Z,38.1
2022-12-17T01:01:57.029Z,37.8
2022-12-17T01:02:57.811Z,38.9
2022-12-17T01:03:58.272Z,33.8
2022-12-17T01:04:58.867Z,39.8
2022-12-17T01:05:59.458Z,39.8
2022-12-17T01:07:00.054Z,38.4
2022-12-17T01:08:00.648Z,39.0
2022-12-17T01:09:01.243Z,35.6
2022-12-17T01:10:01.837Z,37.9
2022-12-17T01:11:02.430Z,39.1
2022-12-17T01:12:03.023Z,33.0
2022-12-17T01:13:03.617Z,37.9
2022-12-17T01:14:04.209Z,40.3
2022-12-17T01:15:04.802Z,35.6
2022-12-17T01:16:05.433Z,35.6
2022-12-17T01:17:05.989Z,35.0
2022-12-17T01:18:06.584Z,37.2
2022-12-17T01:19:07.184Z,36.8
2022-12-17T01:20:07.771Z,41.9
2022-12-17T01:21:08.363Z,41.9
2022-12-17T01:22:08.955Z,36.7
2022-12-17T01:23:10.329Z,39.5
2022-12-17T01:24:10.941Z,38.0
2022-12-17T01:25:11.557Z,38.3
2022-12-17T01:26:12.146Z,39.2
2022-12-17T01:27:12.740Z,40.4
2022-12-17T01:28:13.332Z,37.2
2022-12-17T01:29:13.928Z,43.1
2022-12-17T01:30:14.520Z,39.5
2022-12-17T01:31:15.179Z,34.0
2022-12-17T01:32:15.752Z,38.4
2022-12-17T01:33:16.407Z,37.8
2022-12-17T01:34:16.953Z,40.0
2022-12-17T01:35:17.553Z,36.8
2022-12-17T01:36:18.139Z,36.0
2022-12-17T01:37:18.752Z,40.3
2022-12-17T01:38:19.367Z,45.2
2022-12-17T01:39:19.960Z,43.6
2022-12-17T01:40:20.554Z,37.2
2022-12-17T01:41:21.145Z,41.0
2022-12-17T01:42:21.737Z,40.2
2022-12-17T01:43:22.331Z,37.0
2022-12-17T01:44:22.923Z,38.5
2022-12-17T01:45:23.602Z,36.7
2022-12-17T01:46:24.177Z,42.5
2022-12-17T01:47:24.773Z,35.9
2022-12-17T01:48:25.367Z,36.2
2022-12-17T01:49:25.959Z,34.8
2022-12-17T01:50:26.550Z,45.2
2022-12-17T01:51:27.144Z,38.0
2022-12-17T01:52:27.738Z,40.4
2022-12-17T01:53:28.332Z,38.2
2022-12-17T01:54:28.946Z,35.7
2022-12-17T01:55:29.539Z,39.5
2022-12-17T01:56:30.152Z,36.6
2022-12-17T01:57:30.744Z,36.3
2022-12-17T01:58:31.356Z,37.9
2022-12-17T01:59:31.953Z,41.8
2022-12-17T02:00:32.646Z,40.0
2022-12-17T02:01:33.396Z,43.1
2022-12-17T02:02:34.069Z,41.4
2022-12-17T02:03:35.009Z,39.4
2022-12-17T02:04:35.762Z,37.8
2022-12-17T02:05:36.355Z,33.9
2022-12-17T02:06:36.953Z,42.3
2022-12-17T02:07:37.615Z,41.8
2022-12-17T02:08:38.173Z,40.9
2022-12-17T02:09:38.765Z,38.3
2022-12-17T02:10:39.355Z,38.8
2022-12-17T02:11:39.973Z,38.7
2022-12-17T02:12:40.561Z,35.1
2022-12-17T02:13:41.156Z,36.6
2022-12-17T02:14:41.751Z,36.8
2022-12-17T02:15:42.367Z,40.5
2022-12-17T02:16:43.022Z,37.2
2022-12-17T02:17:43.590Z,42.3
2022-12-17T02:18:44.182Z,33.7
2022-12-17T02:19:44.781Z,42.6
2022-12-17T02:20:45.390Z,38.5
2022-12-17T02:21:45.983Z,37.4
2022-12-17T02:22:46.591Z,35.9
2022-12-17T02:23:47.172Z,36.2
2022-12-17T02:24:47.762Z,42.0
2022-12-17T02:25:48.356Z,35.1
2022-12-17T02:26:48.948Z,34.9
2022-12-17T02:27:49.542Z,37.4
2022-12-17T02:28:50.133Z,37.2
2022-12-17T02:29:50.729Z,38.4
2022-12-17T02:30:51.324Z,37.6
2022-12-17T02:31:51.995Z,36.2
2022-12-17T02:32:52.591Z,34.2
2022-12-17T02:33:53.181Z,37.7
2022-12-17T02:34:53.777Z,32.7
2022-12-17T02:35:54.368Z,33.7
2022-12-17T02:36:55.955Z,33.2
2022-12-17T02:37:56.546Z,34.7
2022-12-17T02:38:57.141Z,34.9
2022-12-17T02:39:57.733Z,34.6
2022-12-17T02:40:58.328Z,29.0
2022-12-17T02:41:58.922Z,34.9
2022-12-17T02:42:59.516Z,30.4
2022-12-17T02:44:00.112Z,29.9
2022-12-17T02:45:00.724Z,31.5
2022-12-17T02:46:01.396Z,32.1
2022-12-17T02:47:01.973Z,34.5
2022-12-17T02:48:02.562Z,30.8
2022-12-17T02:49:03.157Z,35.9
2022-12-17T02:50:03.762Z,32.6
2022-12-17T02:51:04.344Z,29.9
2022-12-17T02:52:04.958Z,34.2
2022-12-17T02:53:05.550Z,31.4
2022-12-17T02:54:06.164Z,34.6
2022-12-17T02:55:06.758Z,33.3
2022-12-17T02:56:07.370Z,40.0
2022-12-17T02:57:07.964Z,34.2
2022-12-17T02:58:08.557Z,37.7
2022-12-17T02:59:09.152Z,35.6
2022-12-17T03:00:09.745Z,34.2
2022-12-17T03:01:10.368Z,38.4
2022-12-17T03:02:11.028Z,32.3
2022-12-17T03:03:11.715Z,33.7
2022-12-17T03:04:12.256Z,40.0
2022-12-17T03:05:36.002Z,36.3
2022-12-17T03:06:14.437Z,34.2
2022-12-17T03:07:15.056Z,37.0
2022-12-17T03:08:15.627Z,39.4
2022-12-17T03:09:16.239Z,35.2
2022-12-17T03:10:16.831Z,38.0
2022-12-17T03:11:17.433Z,37.5
2022-12-17T03:12:18.020Z,38.6
2022-12-17T03:13:18.616Z,36.9
2022-12-17T03:14:19.210Z,34.1
2022-12-17T03:15:19.801Z,36.5
2022-12-17T03:16:20.401Z,33.7
2022-12-17T03:17:21.004Z,35.4
2022-12-17T03:18:21.597Z,33.0
2022-12-17T03:19:22.209Z,31.4
2022-12-17T03:20:22.801Z,37.0
2022-12-17T03:21:23.394Z,42.2
2022-12-17T03:22:23.986Z,39.5
2022-12-17T03:23:24.599Z,36.6
2022-12-17T03:24:25.213Z,35.7
2022-12-17T03:25:25.826Z,36.1
2022-12-17T03:26:26.418Z,32.6
2022-12-17T03:27:27.016Z,39.5
2022-12-17T03:28:27.602Z,31.8
2022-12-17T03:29:28.197Z,31.0
2022-12-17T03:30:31.023Z,34.0
2022-12-17T03:31:29.454Z,33.5
2022-12-17T03:32:30.054Z,33.9
2022-12-17T03:33:30.638Z,37.7
2022-12-17T03:34:31.241Z,32.6
2022-12-17T03:35:31.844Z,32.0
2022-12-17T03:36:32.438Z,32.2
2022-12-17T03:37:33.051Z,35.1
2022-12-17T03:38:33.644Z,39.6
2022-12-17T03:39:34.238Z,33.1
2022-12-17T03:40:34.853Z,33.2
2022-12-17T03:41:35.454Z,29.7
2022-12-17T03:42:36.041Z,36.1
2022-12-17T03:43:36.888Z,40.8
2022-12-17T03:44:37.720Z,31.2
2022-12-17T03:45:38.386Z,28.2
2022-12-17T03:46:38.924Z,37.2
2022-12-17T03:47:39.517Z,34.1
2022-12-17T03:48:40.109Z,35.1
2022-12-17T03:49:40.756Z,36.0
2022-12-17T03:50:41.319Z,37.7
2022-12-17T03:51:41.913Z,31.9
2022-12-17T03:52:42.529Z,41.6
2022-12-17T03:53:43.122Z,34.4
2022-12-17T03:54:43.716Z,35.4
2022-12-17T03:55:44.313Z,33.0
2022-12-17T03:56:44.904Z,35.8
2022-12-17T03:57:45.513Z,33.1
2022-12-17T03:58:46.107Z,27.2
2022-12-17T03:59:46.705Z,23.9
2022-12-17T04:00:47.294Z,22.7
2022-12-17T04:01:47.994Z,23.6
2022-12-17T04:02:48.625Z,17.4
2022-12-17T04:03:49.327Z,23.2
2022-12-17T04:04:49.904Z,18.2
2022-12-17T04:05:50.495Z,18.3
2022-12-17T04:06:51.092Z,26.8
2022-12-17T04:07:51.688Z,17.8
2022-12-17T04:08:52.276Z,28.7
2022-12-17T04:09:52.873Z,29.7
2022-12-17T04:10:53.961Z,25.8
2022-12-17T04:11:54.750Z,25.9
2022-12-17T04:12:55.342Z,22.7
2022-12-17T04:13:55.938Z,20.1
2022-12-17T04:14:56.530Z,17.1
2022-12-17T04:15:57.183Z,18.5
2022-12-17T04:16:57.743Z,19.0
2022-12-17T04:17:58.337Z,20.3
2022-12-17T04:18:58.932Z,19.1
2022-12-17T04:19:59.526Z,22.4
2022-12-17T04:21:00.121Z,20.6
2022-12-17T04:22:00.735Z,29.7
2022-12-17T04:23:01.353Z,28.2
2022-12-17T04:24:01.944Z,27.3
2022-12-17T04:25:02.543Z,20.1
2022-12-17T04:26:03.129Z,26.4
2022-12-17T04:27:03.744Z,24.8
2022-12-17T04:28:04.338Z,20.5
2022-12-17T04:29:04.930Z,24.7
2022-12-17T04:30:05.525Z,27.2
2022-12-17T04:31:06.135Z,28.3
2022-12-17T04:32:06.738Z,32.0
2022-12-17T04:33:07.351Z,27.3
2022-12-17T04:34:07.945Z,28.2
2022-12-17T04:35:08.538Z,24.3
2022-12-17T04:36:09.132Z,26.4
2022-12-17T04:37:09.724Z,31.5
2022-12-17T04:38:10.338Z,30.3
2022-12-17T04:39:10.931Z,26.8
2022-12-17T04:40:11.543Z,26.0
2022-12-17T04:41:12.141Z,30.0
2022-12-17T04:42:12.748Z,28.2
2022-12-17T04:43:13.340Z,31.8
2022-12-17T04:44:13.934Z,29.6
2022-12-17T04:45:14.524Z,29.2
2022-12-17T04:46:15.162Z,29.2
2022-12-17T04:47:15.788Z,31.7
2022-12-17T04:48:16.379Z,29.5
2022-12-17T04:49:16.972Z,29.7
2022-12-17T04:50:17.567Z,21.9
2022-12-17T04:51:18.161Z,28.4
2022-12-17T04:52:18.754Z,26.7
2022-12-17T04:53:19.347Z,25.3
2022-12-17T04:54:19.943Z,26.7
2022-12-17T04:55:20.536Z,31.2
2022-12-17T04:56:21.131Z,30.8
2022-12-17T04:57:21.721Z,27.9
2022-12-17T04:58:22.314Z,28.1
2022-12-17T04:59:22.907Z,28.9
2022-12-17T05:00:23.524Z,27.1
2022-12-17T05:01:24.247Z,29.9
2022-12-17T05:02:24.902Z,26.9
2022-12-17T05:03:25.559Z,29.0
2022-12-17T05:04:26.110Z,31.5
2022-12-17T05:05:26.700Z,31.3
2022-12-17T05:06:27.296Z,30.2
2022-12-17T05:07:27.885Z,30.0
2022-12-17T05:08:28.481Z,29.8
2022-12-17T05:09:29.093Z,29.8
2022-12-17T05:10:29.694Z,28.9
2022-12-17T05:11:30.281Z,27.4
2022-12-17T05:12:30.876Z,27.6
2022-12-17T05:13:31.470Z,32.1
2022-12-17T05:14:32.085Z,29.1
2022-12-17T05:15:32.735Z,30.4
2022-12-17T05:16:33.297Z,24.6
2022-12-17T05:17:33.868Z,29.4
2022-12-17T05:18:34.462Z,31.6
2022-12-17T05:19:35.053Z,31.4
2022-12-17T05:20:35.665Z,29.2
2022-12-17T05:21:36.261Z,27.8
2022-12-17T05:22:36.856Z,32.0
2022-12-17T05:23:37.631Z,33.7
2022-12-17T05:24:38.370Z,31.9
2022-12-17T05:25:38.965Z,31.7
2022-12-17T05:26:39.559Z,34.7
2022-12-17T05:27:40.171Z,31.3
2022-12-17T05:28:40.766Z,33.8
2022-12-17T05:29:41.361Z,27.6
2022-12-17T05:30:41.976Z,29.8
2022-12-17T05:31:42.616Z,25.4
2022-12-17T05:32:43.188Z,27.8
2022-12-17T05:33:43.779Z,29.7
2022-12-17T05:34:44.373Z,30.7
2022-12-17T05:35:44.967Z,40.4
2022-12-17T05:36:45.559Z,29.9
2022-12-17T05:37:46.155Z,30.3
2022-12-17T05:38:46.766Z,28.4
2022-12-17T05:39:47.360Z,28.9
2022-12-17T05:40:47.957Z,28.4
2022-12-17T05:41:48.550Z,26.2
2022-12-17T05:42:49.146Z,30.1
2022-12-17T05:43:49.739Z,28.5
2022-12-17T05:44:50.333Z,26.4
2022-12-17T05:45:50.925Z,26.0
2022-12-17T05:46:51.606Z,30.0
2022-12-17T05:47:52.188Z,23.7
2022-12-17T05:48:52.786Z,23.6
2022-12-17T05:49:53.376Z,31.9
2022-12-17T05:50:54.963Z,33.0
2022-12-17T05:51:55.558Z,30.3
2022-12-17T05:52:56.152Z,28.4
2022-12-17T05:53:56.747Z,47.5
2022-12-17T05:54:57.362Z,27.8
2022-12-17T05:55:57.955Z,28.3
2022-12-17T05:56:58.549Z,28.8
2022-12-17T05:57:59.142Z,27.6
2022-12-17T05:58:59.737Z,26.1
2022-12-17T06:00:00.332Z,35.4
2022-12-17T06:01:00.924Z,33.1
2022-12-17T06:02:01.601Z,33.5
2022-12-17T06:03:02.244Z,29.9
2022-12-17T06:04:02.801Z,27.9
2022-12-17T06:05:03.350Z,29.2
2022-12-17T06:06:03.961Z,31.0
2022-12-17T06:07:04.560Z,30.2
2022-12-17T06:08:05.170Z,32.4
2022-12-17T06:09:05.765Z,28.7
2022-12-17T06:10:06.377Z,29.2
2022-12-17T06:11:06.973Z,24.8
2022-12-17T06:12:07.588Z,25.9
2022-12-17T06:13:08.179Z,22.9
2022-12-17T06:14:08.771Z,33.0
2022-12-17T06:15:09.367Z,30.6
2022-12-17T06:16:10.049Z,30.2
2022-12-17T06:17:10.611Z,27.9
2022-12-17T06:18:16.462Z,24.4
2022-12-17T06:19:12.793Z,27.5
2022-12-17T06:20:13.384Z,26.4
2022-12-17T06:21:13.978Z,26.4
2022-12-17T06:22:14.575Z,24.6
2022-12-17T06:23:15.165Z,24.6
2022-12-17T06:24:15.759Z,27.7
2022-12-17T06:25:16.353Z,25.6
2022-12-17T06:26:16.949Z,24.1
2022-12-17T06:27:17.560Z,28.7
2022-12-17T06:28:18.150Z,23.3
2022-12-17T06:29:18.745Z,24.0
2022-12-17T06:30:19.352Z,29.3
2022-12-17T06:31:19.991Z,29.4
2022-12-17T06:32:20.564Z,32.1
2022-12-17T06:33:21.158Z,32.3
2022-12-17T06:34:21.754Z,32.0
2022-12-17T06:35:22.343Z,34.2
2022-12-17T06:36:23.179Z,31.2
2022-12-17T06:37:23.565Z,26.4
2022-12-17T06:38:24.158Z,29.4
2022-12-17T06:39:24.752Z,31.4
2022-12-17T06:40:25.365Z,27.6
2022-12-17T06:41:25.958Z,29.5
2022-12-17T06:42:26.553Z,34.7
2022-12-17T06:43:27.172Z,33.0
2022-12-17T06:44:27.762Z,29.4
2022-12-17T06:45:28.356Z,27.8
2022-12-17T06:46:29.141Z,36.9
2022-12-17T06:47:29.734Z,30.8
2022-12-17T06:48:30.329Z,29.5
2022-12-17T06:49:30.922Z,29.5
2022-12-17T06:50:31.515Z,28.2
2022-12-17T06:51:32.115Z,25.4
2022-12-17T06:52:32.706Z,32.5
2022-12-17T06:53:33.536Z,31.9
2022-12-17T06:54:34.173Z,28.5
2022-12-17T06:55:34.764Z,29.2
2022-12-17T06:56:35.358Z,27.1
2022-12-17T06:57:40.504Z,23.8
2022-12-17T06:58:37.576Z,24.0
2022-12-17T06:59:38.176Z,34.5
2022-12-17T07:00:38.807Z,27.3
2022-12-17T07:01:39.529Z,28.9
2022-12-17T07:02:40.082Z,27.3
2022-12-17T07:03:40.684Z,29.0
2022-12-17T07:04:41.277Z,27.0
2022-12-17T07:05:41.892Z,24.9
2022-12-17T07:06:42.487Z,26.1
2022-12-17T07:07:43.080Z,21.6
2022-12-17T07:08:43.676Z,22.9
2022-12-17T07:09:44.292Z,21.4
2022-12-17T07:10:44.886Z,25.6
2022-12-17T07:11:45.573Z,28.9
2022-12-17T07:12:46.088Z,19.0
2022-12-17T07:13:46.683Z,20.1
2022-12-17T07:14:47.278Z,18.3
2022-12-17T07:15:47.874Z,20.4
2022-12-17T07:16:48.552Z,20.2
2022-12-17T07:17:49.153Z,21.3
2022-12-17T07:18:49.751Z,27.7
2022-12-17T07:19:50.369Z,49.1
2022-12-17T07:20:50.966Z,47.7
2022-12-17T07:21:51.563Z,34.9
2022-12-17T07:22:52.162Z,170.9
2022-12-17T07:23:52.763Z,117.4
2022-12-17T07:24:53.356Z,61.3
2022-12-17T07:25:53.952Z,79.3
2022-12-17T07:26:54.571Z,41.0
2022-12-17T07:27:55.161Z,26.0
2022-12-17T07:28:55.780Z,27.9
2022-12-17T07:29:56.374Z,24.7
2022-12-17T07:30:56.973Z,22.8
2022-12-17T07:31:57.602Z,24.6
2022-12-17T07:32:58.245Z,24.8
2022-12-17T07:33:58.842Z,24.6
2022-12-17T07:34:59.437Z,29.7
2022-12-17T07:36:00.036Z,25.9
2022-12-17T07:37:00.855Z,24.8
2022-12-17T07:38:01.264Z,26.9
2022-12-17T07:39:01.880Z,25.8
2022-12-17T07:40:02.482Z,23.3
2022-12-17T07:41:03.071Z,23.5
2022-12-17T07:42:03.665Z,26.6
2022-12-17T07:43:04.282Z,26.1
2022-12-17T07:44:04.879Z,27.8
2022-12-17T07:45:05.478Z,27.1
2022-12-17T07:46:06.146Z,24.6
2022-12-17T07:47:06.706Z,22.7
2022-12-17T07:48:07.303Z,26.4
2022-12-17T07:49:07.903Z,23.5
2022-12-17T07:50:08.498Z,22.3
2022-12-17T07:51:09.096Z,25.2
2022-12-17T07:52:09.713Z,21.4
2022-12-17T07:53:10.309Z,22.6
2022-12-17T07:54:10.908Z,21.8
2022-12-17T07:55:16.732Z,27.9
2022-12-17T07:56:13.093Z,25.5
2022-12-17T07:57:13.690Z,24.1
2022-12-17T07:58:14.286Z,22.9
2022-12-17T07:59:14.883Z,19.5
2022-12-17T08:00:15.480Z,20.7
2022-12-17T08:01:16.150Z,23.1
2022-12-17T08:02:16.979Z,22.6
2022-12-17T08:03:17.772Z,20.9
2022-12-17T08:04:18.440Z,20.9
2022-12-17T08:05:19.056Z,22.9
2022-12-17T08:06:19.655Z,22.9
2022-12-17T08:07:20.251Z,19.5
2022-12-17T08:08:20.866Z,20.5
2022-12-17T08:09:21.466Z,21.7
2022-12-17T08:10:22.063Z,22.6
2022-12-17T08:11:22.661Z,21.3
2022-12-17T08:12:23.261Z,19.3
2022-12-17T08:13:23.859Z,19.2
2022-12-17T08:14:24.458Z,23.4
2022-12-17T08:15:25.055Z,24.6
2022-12-17T08:16:25.675Z,25.4
2022-12-17T08:17:26.256Z,29.3
2022-12-17T08:18:27.139Z,28.4
2022-12-17T08:19:27.680Z,33.8
2022-12-17T08:20:28.278Z,28.8
2022-12-17T08:21:28.879Z,25.1
2022-12-17T08:22:29.475Z,32.3
2022-12-17T08:23:30.075Z,26.8
2022-12-17T08:24:30.693Z,31.2
2022-12-17T08:25:31.291Z,31.1
2022-12-17T08:26:31.891Z,26.3
2022-12-17T08:27:32.510Z,25.1
2022-12-17T08:28:50.079Z,22.8
2022-12-17T08:29:34.582Z,27.4
2022-12-17T08:30:35.229Z,31.3
2022-12-17T08:31:35.792Z,31.6
2022-12-17T08:32:36.390Z,28.9
2022-12-17T08:33:37.301Z,25.6
2022-12-17T08:34:38.178Z,28.0
2022-12-17T08:35:38.766Z,26.5
2022-12-17T08:36:39.366Z,33.0
2022-12-17T08:37:39.983Z,32.3
2022-12-17T08:38:40.581Z,33.3
2022-12-17T08:39:41.183Z,34.8
2022-12-17T08:40:41.799Z,34.3
2022-12-17T08:41:42.401Z,36.8
2022-12-17T08:42:42.998Z,38.1
2022-12-17T08:43:43.598Z,40.0
2022-12-17T08:44:44.196Z,39.4
2022-12-17T08:45:44.819Z,37.3
2022-12-17T08:46:45.387Z,40.3
2022-12-17T08:47:45.988Z,40.6
2022-12-17T08:48:46.584Z,36.9
2022-12-17T08:49:47.185Z,40.5
2022-12-17T08:50:47.783Z,38.5
2022-12-17T08:51:48.384Z,35.1
2022-12-17T08:52:48.981Z,34.6
2022-12-17T08:53:49.582Z,37.1
2022-12-17T08:54:50.182Z,38.8
2022-12-17T08:55:50.777Z,41.4
2022-12-17T08:56:51.381Z,37.9
2022-12-17T08:57:52.937Z,35.7
2022-12-17T08:58:58.985Z,35.1
2022-12-17T08:59:55.129Z,34.3
2022-12-17T09:00:55.800Z,34.1
2022-12-17T09:01:57.416Z,31.5
2022-12-17T09:02:58.137Z,31.5
2022-12-17T09:03:58.746Z,34.8
2022-12-17T09:04:59.347Z,34.2
2022-12-17T09:05:59.945Z,34.8
2022-12-17T09:07:00.546Z,34.9
2022-12-17T09:08:01.144Z,37.8
2022-12-17T09:09:01.764Z,34.8
2022-12-17T09:10:02.361Z,37.6
2022-12-17T09:11:02.960Z,34.2
2022-12-17T09:12:03.582Z,41.2
2022-12-17T09:13:05.129Z,38.8
2022-12-17T09:14:05.775Z,33.1
2022-12-17T09:15:06.374Z,35.1
2022-12-17T09:16:06.968Z,34.5
2022-12-17T09:17:07.670Z,33.2
2022-12-17T09:18:08.255Z,39.2
2022-12-17T09:19:08.851Z,32.5
2022-12-17T09:20:09.453Z,34.3
2022-12-17T09:21:10.050Z,33.0
2022-12-17T09:22:10.649Z,29.9
2022-12-17T09:23:11.246Z,33.0
2022-12-17T09:24:11.850Z,35.2
2022-12-17T09:25:12.445Z,29.4
2022-12-17T09:26:13.045Z,33.5
2022-12-17T09:27:13.646Z,34.1
2022-12-17T09:28:14.244Z,32.4
2022-12-17T09:29:14.843Z,32.1
2022-12-17T09:30:15.445Z,34.3
2022-12-17T09:31:16.091Z,35.3
2022-12-17T09:32:16.689Z,36.8
2022-12-17T09:33:17.288Z,37.0
2022-12-17T09:34:17.887Z,39.6
2022-12-17T09:35:18.487Z,38.8
2022-12-17T09:36:19.107Z,37.5
2022-12-17T09:37:19.706Z,39.7
2022-12-17T09:38:20.304Z,41.3
2022-12-17T09:39:20.904Z,41.2
2022-12-17T09:40:21.504Z,41.9
2022-12-17T09:41:22.105Z,45.2
2022-12-17T09:42:22.724Z,38.7
2022-12-17T09:43:23.343Z,33.8
2022-12-17T09:44:23.943Z,39.9
2022-12-17T09:45:24.542Z,39.6
2022-12-17T09:46:25.171Z,45.6
2022-12-17T09:47:25.741Z,43.3
2022-12-17T09:48:30.904Z,42.2
2022-12-17T09:49:27.934Z,44.5
2022-12-17T09:50:28.535Z,37.2
2022-12-17T09:51:29.136Z,36.0
2022-12-17T09:52:29.735Z,35.1
2022-12-17T09:53:30.335Z,35.1
2022-12-17T09:54:30.944Z,34.5
2022-12-17T09:55:31.533Z,33.6
2022-12-17T09:56:32.135Z,34.0
2022-12-17T09:57:32.734Z,30.7
2022-12-17T09:58:33.333Z,35.6
2022-12-17T09:59:33.938Z,33.2
2022-12-17T10:00:34.534Z,34.3
2022-12-17T10:01:35.305Z,39.2
2022-12-17T10:02:36.267Z,34.6
2022-12-17T10:03:37.456Z,35.1
2022-12-17T10:04:38.290Z,35.7
2022-12-17T10:05:38.889Z,33.1
2022-12-17T10:06:39.492Z,32.6
2022-12-17T10:07:40.089Z,32.9
2022-12-17T10:08:40.691Z,31.3
2022-12-17T10:09:41.288Z,38.6
2022-12-17T10:10:41.891Z,36.2
2022-12-17T10:11:42.488Z,37.3
2022-12-17T10:12:43.089Z,35.2
2022-12-17T10:13:43.687Z,35.9
2022-12-17T10:14:44.287Z,38.5
2022-12-17T10:15:44.936Z,37.2
2022-12-17T10:16:45.510Z,33.4
2022-12-17T10:17:46.129Z,37.2
2022-12-17T10:18:46.731Z,37.5
2022-12-17T10:19:47.330Z,39.4
2022-12-17T10:20:47.949Z,34.7
2022-12-17T10:21:48.549Z,36.3
2022-12-17T10:22:49.151Z,35.7
2022-12-17T10:23:49.754Z,38.2
2022-12-17T10:24:50.374Z,39.8
2022-12-17T10:25:50.974Z,42.8
2022-12-17T10:26:51.575Z,42.0
2022-12-17T10:27:52.176Z,46.4
2022-12-17T10:28:52.792Z,45.8
2022-12-17T10:29:53.399Z,44.9
2022-12-17T10:30:54.859Z,47.0
2022-12-17T10:31:55.446Z,46.6
2022-12-17T10:32:56.048Z,47.1
2022-12-17T10:33:56.647Z,46.7
2022-12-17T10:35:03.353Z,50.2
2022-12-17T10:35:58.858Z,49.0
2022-12-17T10:36:59.459Z,59.1
2022-12-17T10:38:00.070Z,48.2
2022-12-17T10:39:00.658Z,42.5
2022-12-17T10:40:01.262Z,44.9
2022-12-17T10:41:01.859Z,46.4
2022-12-17T10:42:02.460Z,48.1
2022-12-17T10:43:03.058Z,43.7
2022-12-17T10:44:03.655Z,46.9
2022-12-17T10:45:04.258Z,44.9
2022-12-17T10:46:04.894Z,42.8
2022-12-17T10:47:05.457Z,41.7
2022-12-17T10:48:06.053Z,41.0
2022-12-17T10:49:11.260Z,45.6
2022-12-17T10:50:08.246Z,47.1
2022-12-17T10:51:08.845Z,51.0
2022-12-17T10:52:09.443Z,50.3
2022-12-17T10:53:10.045Z,49.5
2022-12-17T10:54:10.656Z,50.3
2022-12-17T10:55:11.245Z,53.3
2022-12-17T10:56:11.843Z,54.3
2022-12-17T10:57:12.449Z,51.7
2022-12-17T10:58:13.045Z,50.8
2022-12-17T10:59:13.646Z,47.5
2022-12-17T11:00:14.344Z,49.0
2022-12-17T11:01:14.985Z,48.3
2022-12-17T11:02:15.850Z,57.1
2022-12-17T11:03:16.262Z,49.2
2022-12-17T11:04:16.844Z,49.0
2022-12-17T11:05:17.441Z,51.2
2022-12-17T11:06:18.040Z,55.2
2022-12-17T11:07:18.642Z,54.6
2022-12-17T11:08:19.242Z,55.4
2022-12-17T11:09:19.840Z,53.8
2022-12-17T11:10:20.441Z,56.8
2022-12-17T11:11:21.038Z,55.6
2022-12-17T11:12:24.602Z,50.0
2022-12-17T11:13:23.233Z,55.8
2022-12-17T11:14:23.834Z,53.0
2022-12-17T11:15:24.436Z,57.4
2022-12-17T11:16:25.105Z,50.2
2022-12-17T11:17:25.672Z,52.9
2022-12-17T11:18:26.273Z,56.3
2022-12-17T11:19:26.893Z,51.0
2022-12-17T11:20:27.496Z,54.2
2022-12-17T11:21:28.098Z,55.4
2022-12-17T11:22:28.700Z,55.3
2022-12-17T11:23:29.300Z,57.0
2022-12-17T11:24:29.903Z,53.1
2022-12-17T11:25:30.504Z,54.2
2022-12-17T11:26:31.104Z,52.1
2022-12-17T11:27:31.704Z,53.8
2022-12-17T11:28:32.307Z,52.3
2022-12-17T11:29:32.909Z,52.1
2022-12-17T11:30:33.526Z,52.9
2022-12-17T11:31:34.179Z,52.7
2022-12-17T11:32:34.741Z,52.7
2022-12-17T11:33:35.717Z,52.8
2022-12-17T11:34:36.398Z,48.6
2022-12-17T11:35:36.999Z,48.8
2022-12-17T11:36:39.265Z,51.9
2022-12-17T11:37:39.190Z,46.1
2022-12-17T11:38:40.288Z,49.4
2022-12-17T11:39:40.920Z,49.6
2022-12-17T11:40:41.523Z,51.5
2022-12-17T11:41:42.124Z,45.5
2022-12-17T11:42:42.726Z,45.0
2022-12-17T11:43:43.326Z,47.6
2022-12-17T11:44:43.935Z,43.3
2022-12-17T11:45:44.531Z,46.4
2022-12-17T11:46:45.180Z,49.6
2022-12-17T11:47:45.778Z,48.2
2022-12-17T11:48:46.399Z,43.2
2022-12-17T11:49:47.020Z,45.5
2022-12-17T11:50:47.625Z,51.4
2022-12-17T11:51:48.223Z,45.6
2022-12-17T11:52:48.826Z,41.2
2022-12-17T11:53:49.426Z,51.0
2022-12-17T11:54:50.028Z,47.7
2022-12-17T11:55:50.631Z,52.3
2022-12-17T11:56:51.254Z,44.0
2022-12-17T11:57:51.852Z,49.3
2022-12-17T11:58:52.455Z,46.2
2022-12-17T11:59:56.084Z,47.6
2022-12-17T12:00:53.673Z,46.5
2022-12-17T12:01:54.324Z,48.9
2022-12-17T12:02:54.986Z,49.1
2022-12-17T12:03:55.589Z,50.2
2022-12-17T12:04:56.157Z,52.2
2022-12-17T12:05:57.174Z,48.2
2022-12-17T12:06:57.778Z,50.1
2022-12-17T12:07:58.399Z,48.3
2022-12-17T12:08:59.048Z,52.3
2022-12-17T12:09:59.631Z,50.2
2022-12-17T12:11:00.233Z,47.4
2022-12-17T12:12:00.836Z,48.2
2022-12-17T12:13:01.454Z,51.0
2022-12-17T12:14:02.054Z,52.6
2022-12-17T12:15:02.655Z,42.9
2022-12-17T12:16:03.301Z,45.6
2022-12-17T12:17:03.857Z,47.2
2022-12-17T12:18:04.455Z,47.4
2022-12-17T12:19:05.064Z,46.0
2022-12-17T12:20:05.680Z,44.2
2022-12-17T12:21:06.299Z,46.2
2022-12-17T12:22:06.909Z,42.3
2022-12-17T12:23:07.518Z,49.0
2022-12-17T12:24:08.117Z,45.5
2022-12-17T12:25:08.720Z,45.8
2022-12-17T12:26:09.319Z,45.9
2022-12-17T12:27:09.922Z,47.1
2022-12-17T12:28:10.525Z,49.3
2022-12-17T12:29:11.142Z,48.8
2022-12-17T12:30:11.765Z,47.5
2022-12-17T12:31:12.409Z,49.0
2022-12-17T12:32:13.002Z,50.1
2022-12-17T12:33:13.598Z,48.6
2022-12-17T12:34:14.199Z,49.2
2022-12-17T12:35:14.824Z,43.1
2022-12-17T12:36:15.435Z,47.4
2022-12-17T12:37:16.053Z,46.2
2022-12-17T12:38:16.653Z,38.2
2022-12-17T12:39:17.257Z,40.7
2022-12-17T12:40:17.859Z,47.5
2022-12-17T12:41:18.479Z,51.1
2022-12-17T12:42:19.076Z,44.4
2022-12-17T12:43:19.677Z,49.9
2022-12-17T12:44:20.279Z,48.7
2022-12-17T12:45:20.884Z,46.9
2022-12-17T12:46:21.592Z,46.2
2022-12-17T12:47:22.096Z,50.2
2022-12-17T12:48:22.717Z,50.0
2022-12-17T12:49:23.335Z,49.1
2022-12-17T12:50:23.941Z,47.2
2022-12-17T12:51:28.181Z,47.5
2022-12-17T12:52:26.152Z,48.3
2022-12-17T12:53:26.756Z,49.9
2022-12-17T12:54:27.357Z,47.8
2022-12-17T12:55:27.958Z,51.0
2022-12-17T12:56:28.559Z,44.8
2022-12-17T12:57:33.761Z,49.2
2022-12-17T12:58:30.757Z,50.4
2022-12-17T12:59:31.359Z,48.8
2022-12-17T13:00:32.015Z,51.3
2022-12-17T13:01:32.714Z,52.4
2022-12-17T13:02:33.557Z,52.7
2022-12-17T13:03:39.356Z,47.9
2022-12-17T13:04:35.744Z,48.2
2022-12-17T13:05:36.344Z,51.6
2022-12-17T13:06:36.944Z,50.1
2022-12-17T13:07:37.550Z,51.0
2022-12-17T13:08:38.567Z,50.2
2022-12-17T13:09:39.389Z,48.1
2022-12-17T13:10:39.992Z,51.1
2022-12-17T13:11:40.596Z,50.2
2022-12-17T13:12:41.197Z,48.4
2022-12-17T13:13:41.797Z,50.6
2022-12-17T13:14:42.398Z,48.8
2022-12-17T13:15:43.000Z,48.8
2022-12-17T13:16:43.648Z,49.7
2022-12-17T13:17:44.236Z,46.8
2022-12-17T13:18:44.836Z,48.1
2022-12-17T13:19:45.436Z,50.0
2022-12-17T13:20:46.039Z,50.0
2022-12-17T13:21:46.640Z,51.9
2022-12-17T13:22:47.241Z,49.0
2022-12-17T13:23:47.841Z,50.4
2022-12-17T13:24:48.444Z,47.7
2022-12-17T13:25:49.047Z,49.1
2022-12-17T13:26:49.646Z,46.2